Time;durP1;ratioP1;P1;durP2;ratioP2;P2;SDS_P1;SDS_P2;PMS_P1;PMS_P2;Temp;Humidity;BMP_temperature;BMP_pressure;BME280_temperature;BME280_humidity;BME280_pressure;Samples;Min_cycle;Max_cycle;Signal;HPM_P1;HPM_P2
2023/03/14 00:02:08;;;;;;;24.70;16.13;;;19.70;52.90;;;;;;5009072;28;20215;-71
2023/03/14 00:04:35;;;;;;;22.63;15.75;;;19.70;52.90;;;;;;4994922;28;20276;-71
2023/03/14 00:07:01;;;;;;;25.05;16.08;;;19.70;53.00;;;;;;5001704;28;20207;-71
2023/03/14 00:09:29;;;;;;;24.33;14.98;;;19.70;53.00;;;;;;4995015;28;20241;-70
2023/03/14 00:11:56;;;;;;;22.55;15.27;;;19.70;52.90;;;;;;4999487;28;20185;-71
2023/03/14 00:14:23;;;;;;;22.73;15.20;;;19.70;52.90;;;;;;4991416;28;20185;-70
2023/03/14 00:16:49;;;;;;;21.38;14.82;;;19.70;53.00;;;;;;4982801;28;20215;-70
2023/03/14 00:19:15;;;;;;;22.40;14.80;;;19.60;52.90;;;;;;4981230;28;20187;-70
2023/03/14 00:21:41;;;;;;;23.80;16.33;;;19.70;53.00;;;;;;4992719;28;20196;-71
2023/03/14 00:24:08;;;;;;;20.98;14.45;;;19.60;52.80;;;;;;4988266;28;20198;-71
2023/03/14 00:26:34;;;;;;;22.45;14.65;;;19.60;52.90;;;;;;5002532;28;20219;-71
2023/03/14 00:28:59;;;;;;;21.85;15.55;;;19.60;52.90;;;;;;4990127;28;20287;-70
2023/03/14 00:31:25;;;;;;;22.77;15.13;;;19.70;53.00;;;;;;4999448;28;20649;-70
2023/03/14 00:33:53;;;;;;;21.77;14.90;;;19.70;53.00;;;;;;4985764;28;20219;-71
2023/03/14 00:36:20;;;;;;;20.00;13.68;;;19.60;52.80;;;;;;5012041;28;20303;-71
2023/03/14 00:38:50;;;;;;;22.25;14.57;;;19.60;52.80;;;;;;5012577;28;20230;-70
2023/03/14 00:41:24;;;;;;;19.02;13.25;;;19.60;52.80;;;;;;4989107;28;20330;-70
2023/03/14 00:43:51;;;;;;;20.55;13.07;;;19.60;52.80;;;;;;4984978;28;20298;-70
2023/03/14 00:46:17;;;;;;;18.92;13.00;;;19.60;52.80;;;;;;5006465;28;20199;-71
2023/03/14 00:48:46;;;;;;;18.80;12.52;;;19.60;52.90;;;;;;5006659;28;20191;-73
2023/03/14 00:51:14;;;;;;;17.98;12.82;;;19.70;52.90;;;;;;5014741;28;20195;-71
2023/03/14 00:53:43;;;;;;;19.23;12.93;;;19.60;52.80;;;;;;4998389;28;20271;-71
2023/03/14 00:56:12;;;;;;;15.82;11.05;;;19.60;52.80;;;;;;5004519;28;20266;-71
2023/03/14 00:58:39;;;;;;;18.42;12.43;;;19.60;52.90;;;;;;4997930;28;20184;-70
2023/03/14 01:01:14;;;;;;;17.23;12.38;;;19.60;52.80;;;;;;5002827;28;20183;-70
2023/03/14 01:03:40;;;;;;;23.23;13.32;;;19.60;52.80;;;;;;5013290;28;20663;-70
2023/03/14 01:06:14;;;;;;;17.67;12.05;;;19.60;52.80;;;;;;4983036;28;20691;-70
2023/03/14 01:08:43;;;;;;;18.98;13.05;;;19.60;52.80;;;;;;4996572;28;20185;-70
2023/03/14 01:11:13;;;;;;;19.75;13.05;;;19.60;52.80;;;;;;4983155;28;20195;-70
2023/03/14 01:13:39;;;;;;;17.45;12.82;;;19.60;52.80;;;;;;5013381;28;20199;-71
2023/03/14 01:16:09;;;;;;;17.65;11.70;;;19.60;52.90;;;;;;4986028;28;20292;-71
2023/03/14 01:18:39;;;;;;;16.80;11.50;;;19.60;52.80;;;;;;4994281;28;20188;-70
2023/03/14 01:21:22;;;;;;;17.40;12.23;;;19.60;52.80;;;;;;4982688;28;20196;-70
2023/03/14 01:23:49;;;;;;;15.13;10.98;;;19.60;52.80;;;;;;4996540;28;20227;-71
2023/03/14 01:26:19;;;;;;;15.45;10.48;;;19.60;52.80;;;;;;4991805;28;20207;-71
2023/03/14 01:28:47;;;;;;;14.45;10.82;;;19.60;52.90;;;;;;5005332;28;20189;-70
2023/03/14 01:31:13;;;;;;;15.95;10.40;;;19.60;52.80;;;;;;5005602;28;20184;-71
2023/03/14 01:33:40;;;;;;;15.63;10.85;;;19.60;52.80;;;;;;5007273;28;20555;-71
2023/03/14 01:36:10;;;;;;;14.48;10.50;;;19.60;52.80;;;;;;4990661;28;20219;-71
2023/03/14 01:38:39;;;;;;;16.02;10.68;;;19.60;52.80;;;;;;5007984;28;20267;-71
2023/03/14 01:41:14;;;;;;;14.68;10.35;;;19.60;52.80;;;;;;4978621;28;20407;-71
2023/03/14 01:43:42;;;;;;;16.23;10.90;;;19.60;52.80;;;;;;4995710;28;20216;-70
2023/03/14 01:46:37;;;;;;;15.50;10.60;;;19.60;52.90;;;;;;5000684;28;20220;-70
2023/03/14 01:49:32;;;;;;;15.65;9.90;;;19.60;52.90;;;;;;4981933;28;20315;-71
2023/03/14 01:52:07;;;;;;;14.75;10.52;;;19.60;52.80;;;;;;4994009;28;20177;-70
2023/03/14 01:54:47;;;;;;;14.55;10.23;;;19.50;52.80;;;;;;4993724;28;20188;-71
2023/03/14 01:57:36;;;;;;;14.93;9.98;;;19.50;52.80;;;;;;4987591;28;20235;-71
2023/03/14 02:00:17;;;;;;;16.20;10.15;;;19.60;52.90;;;;;;4977906;28;20271;-70
2023/03/14 02:02:48;;;;;;;13.85;9.27;;;19.50;52.80;;;;;;5018965;28;20285;-71
2023/03/14 02:05:22;;;;;;;14.93;9.93;;;19.60;52.80;;;;;;4999535;28;20184;-70
2023/03/14 02:08:00;;;;;;;11.20;8.60;;;19.60;52.80;;;;;;5009864;28;20271;-70
2023/03/14 02:10:40;;;;;;;12.57;8.98;;;19.50;52.80;;;;;;4993731;28;20199;-71
2023/03/14 02:13:08;;;;;;;11.40;8.27;;;19.60;52.80;;;;;;5005800;28;20188;-70
2023/03/14 02:15:57;;;;;;;12.30;8.30;;;19.50;52.80;;;;;;5004511;28;20218;-70
2023/03/14 02:18:51;;;;;;;12.90;8.80;;;19.60;52.80;;;;;;4984007;28;20184;-70
2023/03/14 02:21:45;;;;;;;14.88;9.80;;;19.50;52.80;;;;;;5014883;28;20202;-70
2023/03/14 02:25:11;;;;;;;13.02;8.95;;;19.50;52.80;;;;;;4990116;28;20184;-70
2023/03/14 02:27:37;;;;;;;12.98;8.60;;;19.50;52.80;;;;;;4961641;28;20217;-72
2023/03/14 02:30:13;;;;;;;13.07;8.75;;;19.60;52.90;;;;;;4989407;28;20185;-71
2023/03/14 02:32:47;;;;;;;12.35;8.57;;;19.50;52.80;;;;;;4996777;28;20192;-70
2023/03/14 02:35:20;;;;;;;12.98;9.23;;;19.50;52.80;;;;;;5012774;28;20192;-70
2023/03/14 02:37:55;;;;;;;12.02;8.13;;;19.50;52.80;;;;;;5012209;28;20212;-71
2023/03/14 02:40:23;;;;;;;11.52;8.15;;;19.50;52.80;;;;;;5013280;28;20187;-70
2023/03/14 02:42:51;;;;;;;10.23;7.80;;;19.50;52.80;;;;;;5012629;28;20222;-71
2023/03/14 02:45:18;;;;;;;10.43;7.85;;;19.50;52.80;;;;;;4992968;28;20272;-71
2023/03/14 02:47:57;;;;;;;10.43;7.25;;;19.50;53.40;;;;;;4996015;28;20204;-70
2023/03/14 02:50:30;;;;;;;10.05;7.45;;;19.50;52.80;;;;;;5012290;28;20234;-70
2023/03/14 02:52:56;;;;;;;9.95;7.57;;;19.50;52.80;;;;;;4996089;28;20187;-70
2023/03/14 02:55:25;;;;;;;9.95;6.95;;;19.50;52.80;;;;;;4996143;28;20195;-70
2023/03/14 02:57:54;;;;;;;10.55;7.35;;;19.50;52.80;;;;;;5011848;28;20208;-71
2023/03/14 03:00:20;;;;;;;9.77;7.40;;;19.50;52.80;;;;;;4995198;28;20725;-71
2023/03/14 03:02:46;;;;;;;10.68;7.68;;;19.50;52.80;;;;;;4995559;28;20230;-70
2023/03/14 03:05:14;;;;;;;9.32;6.60;;;19.50;52.80;;;;;;5007597;28;20189;-70
2023/03/14 03:07:40;;;;;;;10.95;8.23;;;19.50;52.80;;;;;;5010965;28;20211;-71
2023/03/14 03:10:06;;;;;;;9.25;7.10;;;19.50;52.80;;;;;;4995642;28;20191;-70
2023/03/14 03:12:32;;;;;;;10.85;7.47;;;19.50;52.80;;;;;;4992332;28;20263;-70
2023/03/14 03:14:58;;;;;;;9.10;6.90;;;19.50;52.90;;;;;;5003687;28;20233;-70
2023/03/14 03:17:24;;;;;;;9.57;7.30;;;19.50;52.80;;;;;;4995178;28;20206;-70
2023/03/14 03:19:50;;;;;;;9.32;7.05;;;19.50;52.80;;;;;;5011909;28;20203;-70
2023/03/14 03:22:16;;;;;;;11.82;6.93;;;19.50;52.80;;;;;;4981158;28;20213;-70
2023/03/14 03:24:42;;;;;;;7.85;6.65;;;19.50;52.90;;;;;;5000613;28;20191;-70
2023/03/14 03:27:08;;;;;;;9.10;6.40;;;19.50;52.90;;;;;;4995141;28;20206;-70
2023/03/14 03:29:34;;;;;;;9.90;6.70;;;19.50;52.90;;;;;;5002315;28;20181;-70
2023/03/14 03:32:00;;;;;;;8.30;6.10;;;19.50;52.90;;;;;;5027029;28;20199;-70
2023/03/14 03:34:28;;;;;;;9.55;6.72;;;19.50;52.80;;;;;;4987437;28;20188;-70
2023/03/14 03:36:58;;;;;;;8.10;6.07;;;19.50;52.90;;;;;;5042316;22;20273;-69
2023/03/14 03:39:26;;;;;;;7.65;6.35;;;19.50;52.90;;;;;;5015507;28;20167;-70
2023/03/14 03:41:51;;;;;;;8.52;6.03;;;19.50;53.00;;;;;;5048201;28;20179;-70
2023/03/14 03:44:18;;;;;;;8.60;5.88;;;19.50;52.90;;;;;;5031889;28;20179;-70
2023/03/14 03:46:44;;;;;;;7.40;5.50;;;19.50;52.80;;;;;;5031318;28;20206;-69
2023/03/14 03:49:11;;;;;;;7.95;5.88;;;19.40;52.80;;;;;;5031380;28;20171;-70
2023/03/14 03:51:36;;;;;;;7.93;6.40;;;19.50;52.90;;;;;;5032305;28;20643;-70
2023/03/14 03:54:02;;;;;;;7.32;5.55;;;19.50;52.90;;;;;;5039245;28;20191;-70
2023/03/14 03:56:31;;;;;;;9.18;5.80;;;19.40;52.80;;;;;;5031534;28;20199;-69
2023/03/14 03:58:57;;;;;;;7.05;5.30;;;19.50;52.90;;;;;;5031494;28;20192;-69
2023/03/14 04:01:24;;;;;;;8.23;6.15;;;19.40;52.80;;;;;;5031614;28;20552;-70
2023/03/14 04:03:52;;;;;;;7.78;5.90;;;19.40;52.80;;;;;;5031462;28;20246;-69
2023/03/14 04:06:19;;;;;;;7.03;5.38;;;19.50;52.90;;;;;;5034677;28;20202;-69
2023/03/14 04:08:47;;;;;;;7.82;5.28;;;19.50;52.90;;;;;;5028541;28;20536;-70
2023/03/14 04:11:45;;;;;;;6.18;5.05;;;19.50;52.90;;;;;;5024570;28;20181;-69
2023/03/14 04:14:23;;;;;;;8.25;5.60;;;19.40;52.80;;;;;;5042258;28;20207;-70
2023/03/14 04:16:59;;;;;;;6.13;4.90;;;19.40;52.80;;;;;;5021861;28;20203;-70
2023/03/14 04:19:25;;;;;;;7.45;5.30;;;19.50;52.90;;;;;;5047728;28;20182;-70
2023/03/14 04:21:53;;;;;;;6.25;4.85;;;19.40;52.80;;;;;;5006709;28;20176;-70
2023/03/14 04:24:20;;;;;;;7.45;5.47;;;19.50;52.90;;;;;;5036027;28;20260;-70
2023/03/14 04:26:48;;;;;;;7.35;5.47;;;19.40;52.80;;;;;;5028049;28;20203;-70
2023/03/14 04:29:14;;;;;;;6.75;4.75;;;19.50;52.90;;;;;;5014705;28;20255;-69
2023/03/14 04:31:43;;;;;;;7.35;4.82;;;19.40;52.80;;;;;;5024289;28;20171;-69
2023/03/14 04:34:09;;;;;;;5.82;4.60;;;19.40;52.80;;;;;;5039393;28;20221;-70
2023/03/14 04:36:40;;;;;;;6.68;4.93;;;19.40;52.80;;;;;;5031447;28;20204;-70
2023/03/14 04:39:08;;;;;;;6.38;5.05;;;19.50;52.90;;;;;;5036141;28;20184;-70
2023/03/14 04:41:38;;;;;;;6.65;5.10;;;19.50;53.50;;;;;;5026627;28;20262;-70
2023/03/14 04:44:04;;;;;;;5.70;4.70;;;19.50;52.90;;;;;;5022522;28;20264;-70
2023/03/14 04:46:30;;;;;;;5.75;4.50;;;19.40;52.80;;;;;;5030844;28;20286;-69
2023/03/14 04:48:56;;;;;;;5.63;4.53;;;19.50;52.90;;;;;;5046219;28;20187;-70
2023/03/14 04:51:27;;;;;;;5.70;4.18;;;19.40;52.80;;;;;;5024518;28;20627;-70
2023/03/14 04:53:53;;;;;;;5.43;4.10;;;19.40;52.80;;;;;;5047299;28;20233;-70
2023/03/14 04:56:20;;;;;;;5.03;3.95;;;19.40;52.80;;;;;;5047352;28;20219;-69
2023/03/14 04:58:45;;;;;;;5.80;4.47;;;19.40;52.80;;;;;;5047041;28;20190;-70
2023/03/14 05:01:15;;;;;;;5.18;4.28;;;19.40;52.80;;;;;;5047388;28;20187;-70
2023/03/14 05:03:49;;;;;;;6.30;4.40;;;19.40;52.80;;;;;;5037851;28;20194;-70
2023/03/14 05:06:31;;;;;;;6.45;4.43;;;19.40;52.80;;;;;;5016180;28;20199;-70
2023/03/14 05:09:06;;;;;;;5.72;4.68;;;19.40;52.80;;;;;;5030569;28;20182;-70
2023/03/14 05:12:04;;;;;;;5.05;3.97;;;19.40;52.80;;;;;;4998406;28;20195;-69
2023/03/14 05:14:53;;;;;;;6.32;4.35;;;19.40;52.80;;;;;;5030599;28;20234;-69
2023/03/14 05:17:49;;;;;;;5.72;4.20;;;19.40;52.80;;;;;;5017618;28;20222;-70
2023/03/14 05:20:35;;;;;;;4.82;3.75;;;19.40;52.80;;;;;;5030944;28;20183;-70
2023/03/14 05:23:25;;;;;;;4.88;3.70;;;19.40;52.80;;;;;;5036613;28;20587;-70
2023/03/14 05:26:02;;;;;;;5.85;4.40;;;19.40;53.40;;;;;;5047883;28;20186;-70
2023/03/14 05:28:37;;;;;;;4.55;4.00;;;19.40;52.80;;;;;;5027084;28;20180;-69
2023/03/14 05:31:17;;;;;;;5.68;4.25;;;19.40;52.80;;;;;;5040814;28;20172;-70
2023/03/14 05:34:01;;;;;;;5.90;4.30;;;19.40;52.80;;;;;;5040054;28;20202;-70
2023/03/14 05:36:36;;;;;;;4.45;3.90;;;19.40;52.80;;;;;;5042056;28;20218;-70
2023/03/14 05:39:13;;;;;;;5.32;3.75;;;19.40;52.80;;;;;;5050632;28;20269;-70
2023/03/14 05:41:41;;;;;;;5.28;4.15;;;19.40;52.80;;;;;;5042857;28;20187;-70
2023/03/14 05:44:24;;;;;;;5.65;3.72;;;19.30;52.70;;;;;;5034236;28;20179;-70
2023/03/14 05:47:10;;;;;;;6.03;4.32;;;19.40;52.80;;;;;;5016974;28;20710;-70
2023/03/14 05:49:47;;;;;;;4.88;3.78;;;19.40;52.80;;;;;;5030306;28;20167;-71
2023/03/14 05:52:12;;;;;;;4.30;3.58;;;19.40;52.80;;;;;;5027184;28;20195;-69
2023/03/14 05:55:00;;;;;;;5.03;3.58;;;19.40;52.80;;;;;;5041931;28;20219;-71
2023/03/14 05:57:44;;;;;;;5.40;3.90;;;19.30;52.70;;;;;;5040165;28;20234;-70
2023/03/14 06:00:11;;;;;;;4.35;3.65;;;19.30;52.70;;;;;;5042763;28;20647;-70
2023/03/14 06:02:47;;;;;;;5.55;3.88;;;19.30;52.70;;;;;;5002214;28;20204;-70
2023/03/14 06:05:24;;;;;;;5.10;3.53;;;19.30;52.70;;;;;;5023599;28;20246;-70
2023/03/14 06:07:56;;;;;;;5.28;3.80;;;19.40;53.40;;;;;;5015425;28;20203;-70
2023/03/14 06:10:22;;;;;;;4.57;3.60;;;19.40;52.80;;;;;;5033563;28;20168;-71
2023/03/14 06:12:48;;;;;;;5.47;3.97;;;19.30;52.70;;;;;;5036956;28;20780;-71
2023/03/14 06:15:14;;;;;;;3.97;3.40;;;19.40;52.70;;;;;;5030180;28;20184;-71
2023/03/14 06:17:41;;;;;;;4.55;3.70;;;19.30;52.70;;;;;;5001926;28;20287;-72
2023/03/14 06:20:12;;;;;;;7.10;3.58;;;19.40;52.80;;;;;;4995976;28;20195;-71
2023/03/14 06:22:39;;;;;;;5.85;3.53;;;19.40;52.80;;;;;;5009794;28;20208;-72
2023/03/14 06:25:06;;;;;;;5.10;3.40;;;19.30;52.70;;;;;;5005950;28;20226;-71
2023/03/14 06:27:33;;;;;;;4.75;3.25;;;19.30;52.70;;;;;;5026844;28;20198;-71
2023/03/14 06:29:59;;;;;;;3.50;3.03;;;19.40;52.80;;;;;;5037200;28;20188;-71
2023/03/14 06:32:26;;;;;;;3.97;3.13;;;19.30;52.80;;;;;;5041290;28;20220;-71
2023/03/14 06:34:57;;;;;;;4.22;3.47;;;19.30;52.70;;;;;;5020242;28;20184;-70
2023/03/14 06:37:23;;;;;;;4.05;3.33;;;19.30;52.70;;;;;;5032104;28;20215;-70
2023/03/14 06:39:49;;;;;;;5.18;3.10;;;19.40;52.80;;;;;;5040163;28;20754;-69
2023/03/14 06:42:26;;;;;;;5.03;3.58;;;19.30;52.70;;;;;;5026176;28;20210;-69
2023/03/14 06:44:53;;;;;;;4.03;3.50;;;19.30;52.80;;;;;;5015423;28;20187;-69
2023/03/14 06:47:19;;;;;;;3.90;2.75;;;19.40;52.80;;;;;;5015243;28;20199;-68
2023/03/14 06:49:45;;;;;;;3.60;2.83;;;19.30;52.70;;;;;;5015683;28;20214;-69
2023/03/14 06:52:12;;;;;;;3.90;3.00;;;19.40;52.80;;;;;;5015670;28;20751;-69
2023/03/14 06:54:38;;;;;;;3.50;3.13;;;19.30;52.70;;;;;;5015537;28;20215;-69
2023/03/14 06:57:04;;;;;;;3.78;3.13;;;19.30;52.70;;;;;;5013611;28;20269;-70
2023/03/14 06:59:30;;;;;;;4.18;2.97;;;19.40;52.80;;;;;;5014669;28;20210;-69
2023/03/14 07:01:56;;;;;;;3.67;2.88;;;19.30;52.70;;;;;;5015247;28;20266;-69
2023/03/14 07:04:22;;;;;;;4.10;3.13;;;19.30;52.60;;;;;;5048339;28;20278;-69
2023/03/14 07:06:48;;;;;;;3.78;3.03;;;19.30;52.60;;;;;;5048209;28;20215;-69
2023/03/14 07:09:17;;;;;;;3.47;2.67;;;19.30;52.70;;;;;;5048177;28;20191;-69
2023/03/14 07:11:48;;;;;;;3.10;2.80;;;19.40;52.80;;;;;;5031929;28;20201;-69
2023/03/14 07:14:16;;;;;;;3.75;2.88;;;19.30;52.60;;;;;;5040065;28;20179;-69
2023/03/14 07:16:42;;;;;;;3.42;2.53;;;19.30;52.70;;;;;;5014899;28;20231;-69
2023/03/14 07:19:08;;;;;;;4.03;3.00;;;19.40;52.70;;;;;;5016117;28;20191;-69
2023/03/14 07:21:35;;;;;;;2.83;2.40;;;19.30;52.60;;;;;;5048134;28;20180;-69
2023/03/14 07:24:05;;;;;;;3.92;2.92;;;19.30;52.60;;;;;;5041953;28;20300;-70
2023/03/14 07:26:33;;;;;;;3.63;3.10;;;19.40;52.70;;;;;;5031418;28;20295;-69
2023/03/14 07:28:59;;;;;;;3.55;2.63;;;19.40;52.80;;;;;;5022793;28;20286;-69
2023/03/14 07:31:26;;;;;;;2.90;2.50;;;19.40;52.70;;;;;;5048114;28;20178;-70
2023/03/14 07:33:52;;;;;;;3.67;2.47;;;19.30;52.60;;;;;;5031390;28;20191;-69
2023/03/14 07:36:20;;;;;;;3.15;2.80;;;19.40;52.70;;;;;;5011726;28;20215;-69
2023/03/14 07:38:47;;;;;;;3.30;2.50;;;19.40;52.70;;;;;;5010366;28;20191;-69
2023/03/14 07:41:32;;;;;;;3.63;2.63;;;19.40;52.70;;;;;;5014092;28;20183;-69
2023/03/14 07:44:16;;;;;;;3.10;2.80;;;19.40;52.60;;;;;;5030879;28;20193;-69
2023/03/14 07:46:42;;;;;;;3.92;2.22;;;19.50;52.70;;;;;;5030722;28;20357;-69
2023/03/14 07:49:08;;;;;;;3.20;2.70;;;19.50;52.70;;;;;;5014587;28;20245;-69
2023/03/14 07:51:34;;;;;;;2.80;2.50;;;19.50;52.60;;;;;;5014572;28;20206;-70
2023/03/14 07:54:00;;;;;;;3.13;2.63;;;19.50;52.60;;;;;;5030800;28;20195;-69
2023/03/14 07:56:26;;;;;;;2.90;2.58;;;19.50;52.50;;;;;;5030861;28;20226;-70
2023/03/14 07:58:51;;;;;;;2.50;2.30;;;19.60;52.50;;;;;;5014136;28;20183;-69
2023/03/14 08:01:17;;;;;;;2.50;2.08;;;19.60;52.50;;;;;;5014284;28;20202;-69
2023/03/14 08:03:43;;;;;;;3.03;2.40;;;19.60;52.40;;;;;;5014303;28;20211;-69
2023/03/14 08:06:09;;;;;;;3.25;2.47;;;19.60;52.40;;;;;;5014011;28;20257;-69
2023/03/14 08:08:35;;;;;;;3.58;2.85;;;19.60;52.50;;;;;;5030652;28;20215;-69
2023/03/14 08:11:06;;;;;;;3.15;2.42;;;19.60;52.50;;;;;;5014163;28;20187;-69
2023/03/14 08:13:32;;;;;;;3.70;2.80;;;19.60;52.50;;;;;;5014258;28;20211;-69
2023/03/14 08:15:58;;;;;;;3.03;2.42;;;19.60;53.10;;;;;;5014245;28;20198;-69
2023/03/14 08:18:23;;;;;;;3.45;2.20;;;19.60;52.50;;;;;;5047029;28;20183;-69
2023/03/14 08:20:49;;;;;;;2.13;1.92;;;19.60;52.50;;;;;;5047218;28;20199;-69
2023/03/14 08:23:15;;;;;;;3.38;2.60;;;19.60;52.40;;;;;;5038746;28;20219;-69
2023/03/14 08:25:41;;;;;;;2.80;2.15;;;19.60;52.50;;;;;;5014111;28;20248;-69
2023/03/14 08:28:06;;;;;;;3.42;2.30;;;19.60;52.50;;;;;;5013517;28;20202;-69
2023/03/14 08:30:32;;;;;;;2.42;2.20;;;19.60;52.60;;;;;;5046994;28;20187;-70
2023/03/14 08:32:58;;;;;;;2.88;2.20;;;19.60;52.50;;;;;;5030407;28;20202;-70
2023/03/14 08:35:26;;;;;;;3.05;2.75;;;19.60;52.50;;;;;;5013957;28;20572;-69
2023/03/14 08:37:52;;;;;;;3.63;2.47;;;19.60;52.50;;;;;;5028035;28;20283;-70
2023/03/14 08:40:18;;;;;;;2.75;2.22;;;19.60;53.00;;;;;;5014839;28;20278;-70
2023/03/14 08:42:45;;;;;;;2.67;2.28;;;19.60;52.50;;;;;;5014080;28;20306;-70
2023/03/14 08:45:14;;;;;;;3.33;2.55;;;19.60;52.50;;;;;;5014036;28;20272;-70
2023/03/14 08:47:40;;;;;;;2.50;2.13;;;19.60;52.50;;;;;;5030245;28;20246;-70
2023/03/14 08:50:07;;;;;;;2.78;2.35;;;19.60;52.50;;;;;;5047058;28;20183;-69
2023/03/14 08:52:33;;;;;;;3.10;2.35;;;19.60;52.50;;;;;;5017458;28;20192;-70
2023/03/14 08:54:59;;;;;;;2.97;2.10;;;19.60;53.20;;;;;;5035364;28;20194;-69
2023/03/14 08:57:27;;;;;;;2.97;2.22;;;19.60;52.60;;;;;;5028403;28;20196;-70
2023/03/14 08:59:57;;;;;;;2.33;2.00;;;19.60;52.60;;;;;;5030155;28;20191;-69
2023/03/14 09:02:25;;;;;;;2.58;2.08;;;19.50;52.50;;;;;;5017700;28;20257;-70
2023/03/14 09:04:52;;;;;;;2.67;1.80;;;19.50;52.60;;;;;;5017534;28;20183;-69
2023/03/14 09:07:18;;;;;;;1.83;1.60;;;19.50;52.50;;;;;;5015684;28;20203;-70
2023/03/14 09:09:45;;;;;;;2.78;1.85;;;19.50;52.50;;;;;;5012103;28;20250;-69
2023/03/14 09:12:11;;;;;;;2.60;2.10;;;19.50;52.50;;;;;;5019953;28;20655;-69
2023/03/14 09:14:37;;;;;;;2.47;2.13;;;19.60;52.60;;;;;;5050410;28;20190;-70
2023/03/14 09:17:04;;;;;;;2.88;2.30;;;19.50;52.50;;;;;;5050242;28;20274;-69
2023/03/14 09:19:30;;;;;;;2.40;2.15;;;19.60;52.60;;;;;;5033727;28;20281;-68
2023/03/14 09:21:56;;;;;;;2.85;2.42;;;19.60;52.60;;;;;;5016978;28;20286;-70
2023/03/14 09:24:22;;;;;;;2.55;2.00;;;19.60;52.60;;;;;;5017092;28;20188;-69
2023/03/14 09:26:48;;;;;;;2.47;1.98;;;19.60;52.60;;;;;;5016949;28;20199;-70
2023/03/14 09:29:13;;;;;;;2.25;2.05;;;19.60;52.60;;;;;;5016706;28;20179;-70
2023/03/14 09:31:39;;;;;;;2.90;2.17;;;19.60;52.60;;;;;;5016996;28;20223;-70
2023/03/14 09:34:05;;;;;;;3.08;1.80;;;19.60;52.60;;;;;;5016962;28;20277;-69
2023/03/14 09:38:58;;;;;;;3.17;1.80;;;19.60;52.60;;;;;;5028010;28;20668;-70
2023/03/14 09:41:36;;;;;;;2.53;1.90;;;19.60;52.60;;;;;;4980977;28;20184;-70
2023/03/14 09:44:13;;;;;;;1.73;1.60;;;19.60;52.60;;;;;;4997374;28;20208;-70
2023/03/14 09:46:42;;;;;;;2.08;1.88;;;19.60;52.60;;;;;;4980791;28;20223;-70
2023/03/14 09:49:17;;;;;;;3.10;2.05;;;19.60;52.70;;;;;;4997100;28;20211;-69
2023/03/14 09:51:49;;;;;;;2.00;1.80;;;19.60;52.60;;;;;;4981032;28;20175;-70
2023/03/14 09:54:31;;;;;;;1.48;1.38;;;19.60;52.60;;;;;;4997142;28;20192;-70
2023/03/14 09:56:57;;;;;;;2.88;1.90;;;19.60;52.60;;;;;;4997000;28;20211;-70
2023/03/14 09:59:24;;;;;;;2.03;1.83;;;19.60;52.60;;;;;;4980594;28;20250;-70
2023/03/14 10:01:50;;;;;;;2.25;2.03;;;19.60;52.60;;;;;;5009978;28;20200;-70
2023/03/14 10:04:25;;;;;;;2.15;1.95;;;19.60;52.60;;;;;;4995303;28;20195;-69
2023/03/14 10:06:51;;;;;;;2.35;1.60;;;19.60;53.20;;;;;;4996735;28;20203;-70
2023/03/14 10:09:25;;;;;;;1.90;1.80;;;19.60;52.60;;;;;;4980292;28;20199;-70
2023/03/14 10:11:59;;;;;;;1.38;1.27;;;19.60;52.50;;;;;;5009812;28;20211;-70
2023/03/14 10:14:36;;;;;;;2.13;1.92;;;19.60;52.60;;;;;;4996909;28;20179;-70
2023/03/14 10:17:13;;;;;;;1.92;1.70;;;19.60;52.50;;;;;;5014680;28;20196;-70
2023/03/14 10:19:59;;;;;;;1.50;1.40;;;19.60;52.60;;;;;;4991162;28;20188;-70
2023/03/14 10:22:32;;;;;;;1.90;1.67;;;19.60;52.60;;;;;;4996746;28;20565;-70
2023/03/14 10:25:07;;;;;;;1.58;1.40;;;19.60;52.60;;;;;;4997005;28;20609;-70
2023/03/14 10:27:35;;;;;;;2.60;1.80;;;19.60;52.60;;;;;;4980580;28;20215;-70
2023/03/14 10:30:07;;;;;;;1.77;1.48;;;19.60;52.60;;;;;;4997120;28;20226;-70
2023/03/14 10:32:40;;;;;;;2.17;1.77;;;19.60;52.60;;;;;;4980848;28;20263;-70
2023/03/14 10:35:15;;;;;;;2.08;1.60;;;19.60;52.60;;;;;;4980605;28;20196;-70
2023/03/14 10:38:01;;;;;;;2.08;1.88;;;19.60;52.60;;;;;;4977174;28;20319;-69
2023/03/14 10:40:47;;;;;;;1.98;1.80;;;19.60;52.70;;;;;;4987964;28;20212;-69
2023/03/14 10:43:21;;;;;;;2.10;1.77;;;19.70;52.90;;;;;;4980800;28;20212;-70
2023/03/14 10:46:13;;;;;;;2.85;2.00;;;19.70;52.90;;;;;;4997048;28;20192;-70
2023/03/14 10:49:05;;;;;;;2.92;1.80;;;19.60;52.80;;;;;;4995120;28;20191;-70
2023/03/14 10:51:31;;;;;;;2.45;2.00;;;19.60;52.90;;;;;;4996619;28;20198;-70
2023/03/14 10:53:58;;;;;;;3.17;2.88;;;19.60;52.80;;;;;;4996825;28;20635;-70
2023/03/14 10:56:26;;;;;;;4.45;3.22;;;19.60;52.80;;;;;;4996201;28;20215;-70
2023/03/14 10:58:57;;;;;;;4.57;3.10;;;19.60;52.80;;;;;;4996306;28;20191;-70
2023/03/14 11:01:55;;;;;;;5.60;3.67;;;19.60;52.70;;;;;;5013588;28;20227;-70
2023/03/14 11:05:04;;;;;;;5.68;4.10;;;19.60;52.70;;;;;;4997963;28;20200;-70
2023/03/14 11:07:40;;;;;;;9.13;6.55;;;19.60;52.70;;;;;;4996040;28;20204;-70
2023/03/14 11:10:29;;;;;;;13.95;8.88;;;19.60;52.70;;;;;;4996318;28;20246;-70
2023/03/14 11:13:18;;;;;;;14.27;9.00;;;19.70;52.80;;;;;;4987891;28;20189;-68
2023/03/14 11:15:59;;;;;;;15.50;11.07;;;19.70;52.80;;;;;;4978593;28;20187;-70
2023/03/14 11:19:08;;;;;;;17.77;12.38;;;19.70;52.80;;;;;;5012197;28;20239;-69
2023/03/14 11:21:50;;;;;;;22.05;15.77;;;19.70;52.80;;;;;;4987970;28;20568;-70
2023/03/14 11:24:39;;;;;;;21.80;15.93;;;19.70;52.80;;;;;;4980130;28;20262;-69
2023/03/14 11:27:42;;;;;;;26.48;17.60;;;19.60;52.80;;;;;;5007993;28;20307;-71
2023/03/14 11:30:39;;;;;;;26.05;18.80;;;19.60;52.80;;;;;;5013558;28;20223;-70
2023/03/14 11:33:27;;;;;;;27.30;19.67;;;19.60;52.80;;;;;;5011002;28;20184;-70
2023/03/14 11:36:07;;;;;;;31.02;21.63;;;19.60;52.90;;;;;;5020501;28;20228;-71
2023/03/14 11:38:54;;;;;;;34.90;23.60;;;19.70;52.90;;;;;;5012769;28;20231;-70
2023/03/14 11:41:42;;;;;;;32.58;23.63;;;19.60;52.90;;;;;;5005719;28;20211;-69
2023/03/14 11:44:22;;;;;;;34.05;24.92;;;19.60;52.90;;;;;;5012868;28;20211;-70
2023/03/14 11:47:07;;;;;;;35.92;26.05;;;19.60;52.90;;;;;;5006868;28;20196;-70
2023/03/14 11:49:50;;;;;;;40.30;29.33;;;19.60;53.00;;;;;;5011856;28;20226;-70
2023/03/14 11:52:26;;;;;;;38.95;27.55;;;19.60;52.90;;;;;;5014862;28;20267;-70
2023/03/14 11:55:02;;;;;;;38.42;29.27;;;19.60;53.00;;;;;;4979191;28;20291;-70
2023/03/14 11:57:28;;;;;;;38.00;27.55;;;19.60;52.90;;;;;;4988617;28;20215;-70
2023/03/14 12:00:24;;;;;;;44.25;32.30;;;19.60;53.00;;;;;;5000610;28;20192;-70
2023/03/14 12:03:09;;;;;;;44.20;33.13;;;19.60;53.00;;;;;;5012371;28;20219;-70
2023/03/14 12:05:59;;;;;;;42.78;32.08;;;19.60;53.00;;;;;;4991907;28;20215;-70
2023/03/14 12:08:37;;;;;;;46.78;33.05;;;19.60;53.00;;;;;;4993810;28;20703;-70
2023/03/14 12:11:45;;;;;;;46.80;34.28;;;19.60;53.00;;;;;;4995215;28;20187;-70
2023/03/14 12:14:30;;;;;;;50.35;35.15;;;19.60;53.00;;;;;;4990639;28;20200;-70
2023/03/14 12:17:06;;;;;;;51.17;37.10;;;19.50;53.00;;;;;;4979139;28;20220;-70
2023/03/14 12:19:35;;;;;;;49.80;36.60;;;19.50;53.00;;;;;;4995173;28;20195;-70
2023/03/14 12:22:23;;;;;;;49.55;37.40;;;19.60;53.00;;;;;;4978979;28;20185;-70
2023/03/14 12:24:58;;;;;;;74.00;52.30;;;19.50;53.00;;;;;;4980765;28;20234;-70
2023/03/14 12:28:04;;;;;;;64.90;46.50;;;19.50;53.10;;;;;;4995478;28;20200;-70
2023/03/14 12:30:38;;;;;;;56.90;43.65;;;19.60;53.30;;;;;;4994545;28;20196;-70
2023/03/14 12:33:27;;;;;;;59.60;43.38;;;19.60;53.30;;;;;;4991104;28;20226;-70
2023/03/14 12:36:03;;;;;;;60.03;44.70;;;19.50;53.20;;;;;;4989135;28;20242;-70
2023/03/14 12:38:35;;;;;;;57.85;42.30;;;19.50;53.20;;;;;;4994590;28;20226;-71
2023/03/14 12:41:17;;;;;;;61.63;43.60;;;19.50;53.20;;;;;;4994923;28;20195;-70
2023/03/14 12:43:43;;;;;;;56.67;42.55;;;19.60;53.30;;;;;;4994890;28;20243;-71
2023/03/14 12:46:17;;;;;;;56.40;42.17;;;19.50;53.20;;;;;;4995047;28;20230;-71
2023/03/14 12:48:55;;;;;;;51.95;39.95;;;19.50;53.20;;;;;;4987961;28;20212;-69
2023/03/14 12:51:36;;;;;;;60.33;43.47;;;19.50;53.30;;;;;;4994825;28;20196;-70
2023/03/14 12:54:38;;;;;;;58.70;43.40;;;19.50;53.20;;;;;;5000742;28;20184;-70
2023/03/14 12:57:57;;;;;;;60.28;45.22;;;19.50;53.20;;;;;;4995467;28;20568;-70
2023/03/14 13:00:33;;;;;;;55.45;42.05;;;19.50;53.30;;;;;;4995046;28;20651;-70
2023/03/14 13:03:22;;;;;;;58.08;43.08;;;19.50;53.20;;;;;;4997495;28;20215;-70
2023/03/14 13:06:04;;;;;;;58.35;43.80;;;19.50;53.20;;;;;;4996941;28;20275;-70
2023/03/14 13:08:45;;;;;;;57.53;43.97;;;19.50;53.10;;;;;;5009827;28;20302;-70
2023/03/14 13:11:20;;;;;;;61.17;43.42;;;19.50;53.20;;;;;;5011317;28;20282;-71
2023/03/14 13:13:52;;;;;;;56.97;43.33;;;19.50;53.10;;;;;;4979673;28;20222;-70